sensor_id;sensor_type;location;lat;lon;timestamp;P1;durP1;ratioP1;P2;durP2;ratioP2
3573;SDS011;1801;51.050;6.246;2022-12-07T00:01:30;37.50;;;16.58;;
3573;SDS011;1801;51.050;6.246;2022-12-07T00:03:56;42.95;;;18.50;;
3573;SDS011;1801;51.050;6.246;2022-12-07T00:06:25;39.72;;;18.50;;
3573;SDS011;1801;51.050;6.246;2022-12-07T00:08:50;38.60;;;17.47;;
3573;SDS011;1801;51.050;6.246;2022-12-07T00:11:17;47.20;;;19.10;;
3573;SDS011;1801;51.050;6.246;2022-12-07T00:13:42;42.80;;;18.10;;
3573;SDS011;1801;51.050;6.246;2022-12-07T00:16:09;37.13;;;18.43;;
3573;SDS011;1801;51.050;6.246;2022-12-07T00:18:34;41.67;;;18.98;;
3573;SDS011;1801;51.050;6.246;2022-12-07T00:21:00;37.83;;;17.23;;
3573;SDS011;1801;51.050;6.246;2022-12-07T00:23:26;47.17;;;19.15;;
3573;SDS011;1801;51.050;6.246;2022-12-07T00:25:51;43.73;;;19.90;;
3573;SDS011;1801;51.050;6.246;2022-12-07T00:28:16;42.80;;;19.57;;
3573;SDS011;1801;51.050;6.246;2022-12-07T00:30:41;40.13;;;19.67;;
3573;SDS011;1801;51.050;6.246;2022-12-07T00:33:06;41.93;;;18.97;;
3573;SDS011;1801;51.050;6.246;2022-12-07T00:35:32;42.03;;;18.80;;
3573;SDS011;1801;51.050;6.246;2022-12-07T00:37:57;43.93;;;20.20;;
3573;SDS011;1801;51.050;6.246;2022-12-07T00:40:22;42.67;;;19.90;;
3573;SDS011;1801;51.050;6.246;2022-12-07T00:42:47;46.90;;;19.73;;
3573;SDS011;1801;51.050;6.246;2022-12-07T00:45:12;36.03;;;19.30;;
3573;SDS011;1801;51.050;6.246;2022-12-07T00:47:37;44.80;;;21.00;;
3573;SDS011;1801;51.050;6.246;2022-12-07T00:50:03;40.97;;;20.03;;
3573;SDS011;1801;51.050;6.246;2022-12-07T00:52:28;36.40;;;18.57;;
3573;SDS011;1801;51.050;6.246;2022-12-07T00:54:53;42.50;;;19.07;;
3573;SDS011;1801;51.050;6.246;2022-12-07T00:57:18;48.73;;;19.90;;
3573;SDS011;1801;51.050;6.246;2022-12-07T00:59:44;50.33;;;21.30;;
3573;SDS011;1801;51.050;6.246;2022-12-07T01:02:09;56.90;;;22.00;;
3573;SDS011;1801;51.050;6.246;2022-12-07T01:04:34;43.37;;;21.00;;
3573;SDS011;1801;51.050;6.246;2022-12-07T01:06:59;46.07;;;22.37;;
3573;SDS011;1801;51.050;6.246;2022-12-07T01:09:24;49.03;;;21.57;;
3573;SDS011;1801;51.050;6.246;2022-12-07T01:11:50;39.63;;;17.77;;
3573;SDS011;1801;51.050;6.246;2022-12-07T01:14:15;52.77;;;21.60;;
3573;SDS011;1801;51.050;6.246;2022-12-07T01:16:40;46.00;;;21.17;;
3573;SDS011;1801;51.050;6.246;2022-12-07T01:19:05;47.07;;;21.40;;
3573;SDS011;1801;51.050;6.246;2022-12-07T01:21:31;54.40;;;24.37;;
3573;SDS011;1801;51.050;6.246;2022-12-07T01:24:01;54.75;;;23.48;;
3573;SDS011;1801;51.050;6.246;2022-12-07T01:26:26;47.37;;;22.60;;
3573;SDS011;1801;51.050;6.246;2022-12-07T01:28:51;52.57;;;21.20;;
3573;SDS011;1801;51.050;6.246;2022-12-07T01:31:20;52.97;;;21.67;;
3573;SDS011;1801;51.050;6.246;2022-12-07T01:33:46;47.03;;;22.73;;
3573;SDS011;1801;51.050;6.246;2022-12-07T01:36:45;47.80;;;22.40;;
3573;SDS011;1801;51.050;6.246;2022-12-07T01:39:05;50.65;;;24.33;;
3573;SDS011;1801;51.050;6.246;2022-12-07T01:41:32;52.10;;;21.33;;
3573;SDS011;1801;51.050;6.246;2022-12-07T01:44:08;53.10;;;22.73;;
3573;SDS011;1801;51.050;6.246;2022-12-07T01:46:33;51.65;;;22.17;;
3573;SDS011;1801;51.050;6.246;2022-12-07T01:48:58;45.73;;;22.53;;
3573;SDS011;1801;51.050;6.246;2022-12-07T01:51:24;48.43;;;23.43;;
3573;SDS011;1801;51.050;6.246;2022-12-07T01:53:50;42.23;;;22.40;;
3573;SDS011;1801;51.050;6.246;2022-12-07T01:56:17;52.27;;;22.37;;
3573;SDS011;1801;51.050;6.246;2022-12-07T01:58:43;45.65;;;23.15;;
3573;SDS011;1801;51.050;6.246;2022-12-07T02:01:09;63.37;;;24.33;;
3573;SDS011;1801;51.050;6.246;2022-12-07T02:03:38;54.83;;;24.00;;
3573;SDS011;1801;51.050;6.246;2022-12-07T02:06:04;51.17;;;24.30;;
3573;SDS011;1801;51.050;6.246;2022-12-07T02:08:30;48.95;;;23.33;;
3573;SDS011;1801;51.050;6.246;2022-12-07T02:10:55;51.83;;;23.40;;
3573;SDS011;1801;51.050;6.246;2022-12-07T02:13:21;51.83;;;24.07;;
3573;SDS011;1801;51.050;6.246;2022-12-07T02:18:27;46.47;;;22.63;;
3573;SDS011;1801;51.050;6.246;2022-12-07T02:20:58;49.70;;;22.30;;
3573;SDS011;1801;51.050;6.246;2022-12-07T02:28:21;56.33;;;24.42;;
3573;SDS011;1801;51.050;6.246;2022-12-07T02:30:52;48.53;;;24.33;;
3573;SDS011;1801;51.050;6.246;2022-12-07T02:33:24;59.28;;;23.58;;
3573;SDS011;1801;51.050;6.246;2022-12-07T02:35:55;50.47;;;23.27;;
3573;SDS011;1801;51.050;6.246;2022-12-07T02:38:31;59.10;;;23.73;;
3573;SDS011;1801;51.050;6.246;2022-12-07T02:41:09;60.05;;;25.00;;
3573;SDS011;1801;51.050;6.246;2022-12-07T02:43:35;53.15;;;25.27;;
3573;SDS011;1801;51.050;6.246;2022-12-07T02:46:05;46.13;;;21.75;;
3573;SDS011;1801;51.050;6.246;2022-12-07T02:48:31;43.90;;;20.17;;
3573;SDS011;1801;51.050;6.246;2022-12-07T02:50:58;57.97;;;20.27;;
3573;SDS011;1801;51.050;6.246;2022-12-07T02:55:54;60.72;;;23.30;;
3573;SDS011;1801;51.050;6.246;2022-12-07T02:58:25;55.57;;;22.80;;
3573;SDS011;1801;51.050;6.246;2022-12-07T03:01:04;52.03;;;23.00;;
3573;SDS011;1801;51.050;6.246;2022-12-07T03:03:33;61.30;;;25.25;;
3573;SDS011;1801;51.050;6.246;2022-12-07T03:15:58;58.85;;;25.40;;
3573;SDS011;1801;51.050;6.246;2022-12-07T03:18:28;87.80;;;25.10;;
3573;SDS011;1801;51.050;6.246;2022-12-07T03:20:55;60.40;;;26.85;;
3573;SDS011;1801;51.050;6.246;2022-12-07T03:23:21;56.95;;;24.33;;
3573;SDS011;1801;51.050;6.246;2022-12-07T03:25:49;63.08;;;26.00;;
3573;SDS011;1801;51.050;6.246;2022-12-07T03:28:15;60.45;;;25.77;;
3573;SDS011;1801;51.050;6.246;2022-12-07T03:30:43;63.60;;;26.38;;
3573;SDS011;1801;51.050;6.246;2022-12-07T03:33:15;64.45;;;24.17;;
3573;SDS011;1801;51.050;6.246;2022-12-07T03:35:44;57.38;;;27.00;;
3573;SDS011;1801;51.050;6.246;2022-12-07T03:40:46;66.63;;;26.92;;
3573;SDS011;1801;51.050;6.246;2022-12-07T03:43:14;65.57;;;25.98;;
3573;SDS011;1801;51.050;6.246;2022-12-07T03:45:44;60.65;;;24.55;;
3573;SDS011;1801;51.050;6.246;2022-12-07T03:53:15;66.93;;;27.45;;
3573;SDS011;1801;51.050;6.246;2022-12-07T03:55:43;57.22;;;24.95;;
3573;SDS011;1801;51.050;6.246;2022-12-07T03:58:11;68.40;;;26.63;;
3573;SDS011;1801;51.050;6.246;2022-12-07T04:00:37;71.10;;;28.67;;
3573;SDS011;1801;51.050;6.246;2022-12-07T04:03:02;65.17;;;29.63;;
3573;SDS011;1801;51.050;6.246;2022-12-07T04:05:27;64.00;;;27.00;;
3573;SDS011;1801;51.050;6.246;2022-12-07T04:07:52;65.50;;;29.13;;
3573;SDS011;1801;51.050;6.246;2022-12-07T04:10:18;53.00;;;24.67;;
3573;SDS011;1801;51.050;6.246;2022-12-07T04:12:43;67.00;;;28.10;;
3573;SDS011;1801;51.050;6.246;2022-12-07T04:15:08;52.53;;;24.70;;
3573;SDS011;1801;51.050;6.246;2022-12-07T04:17:34;59.57;;;24.20;;
3573;SDS011;1801;51.050;6.246;2022-12-07T04:19:59;97.67;;;29.60;;
3573;SDS011;1801;51.050;6.246;2022-12-07T04:22:24;69.47;;;27.67;;
3573;SDS011;1801;51.050;6.246;2022-12-07T04:24:49;64.33;;;26.63;;
3573;SDS011;1801;51.050;6.246;2022-12-07T04:27:15;67.70;;;25.80;;
3573;SDS011;1801;51.050;6.246;2022-12-07T04:29:40;56.67;;;25.67;;
3573;SDS011;1801;51.050;6.246;2022-12-07T04:32:05;61.90;;;28.30;;
3573;SDS011;1801;51.050;6.246;2022-12-07T04:34:30;63.80;;;27.43;;
3573;SDS011;1801;51.050;6.246;2022-12-07T04:36:56;76.30;;;30.00;;
3573;SDS011;1801;51.050;6.246;2022-12-07T04:39:25;58.80;;;27.23;;
3573;SDS011;1801;51.050;6.246;2022-12-07T04:41:50;72.78;;;29.35;;
3573;SDS011;1801;51.050;6.246;2022-12-07T04:44:16;65.80;;;28.40;;
3573;SDS011;1801;51.050;6.246;2022-12-07T04:46:41;74.83;;;31.30;;
3573;SDS011;1801;51.050;6.246;2022-12-07T04:49:06;74.43;;;26.27;;
3573;SDS011;1801;51.050;6.246;2022-12-07T04:51:32;73.03;;;27.90;;
3573;SDS011;1801;51.050;6.246;2022-12-07T04:53:57;57.80;;;25.30;;
3573;SDS011;1801;51.050;6.246;2022-12-07T04:56:22;73.13;;;28.57;;
3573;SDS011;1801;51.050;6.246;2022-12-07T04:58:48;61.50;;;27.93;;
3573;SDS011;1801;51.050;6.246;2022-12-07T05:01:14;66.17;;;28.37;;
3573;SDS011;1801;51.050;6.246;2022-12-07T05:03:39;82.05;;;31.08;;
3573;SDS011;1801;51.050;6.246;2022-12-07T05:06:05;69.27;;;28.47;;
3573;SDS011;1801;51.050;6.246;2022-12-07T05:08:30;71.83;;;29.27;;
3573;SDS011;1801;51.050;6.246;2022-12-07T05:10:56;69.32;;;31.20;;
3573;SDS011;1801;51.050;6.246;2022-12-07T05:13:21;76.87;;;30.70;;
3573;SDS011;1801;51.050;6.246;2022-12-07T05:15:47;81.40;;;29.37;;
3573;SDS011;1801;51.050;6.246;2022-12-07T05:18:12;68.97;;;30.60;;
3573;SDS011;1801;51.050;6.246;2022-12-07T05:20:38;72.93;;;28.80;;
3573;SDS011;1801;51.050;6.246;2022-12-07T05:23:03;66.77;;;28.40;;
3573;SDS011;1801;51.050;6.246;2022-12-07T05:25:29;82.37;;;30.23;;
3573;SDS011;1801;51.050;6.246;2022-12-07T05:27:54;75.30;;;30.73;;
3573;SDS011;1801;51.050;6.246;2022-12-07T05:30:20;82.87;;;30.00;;
3573;SDS011;1801;51.050;6.246;2022-12-07T05:32:45;71.53;;;33.03;;
3573;SDS011;1801;51.050;6.246;2022-12-07T05:35:10;75.77;;;32.13;;
3573;SDS011;1801;51.050;6.246;2022-12-07T05:37:35;68.07;;;28.00;;
3573;SDS011;1801;51.050;6.246;2022-12-07T05:40:00;72.50;;;30.03;;
3573;SDS011;1801;51.050;6.246;2022-12-07T05:42:25;64.50;;;27.90;;
3573;SDS011;1801;51.050;6.246;2022-12-07T05:44:51;81.43;;;30.90;;
3573;SDS011;1801;51.050;6.246;2022-12-07T05:47:16;70.27;;;29.40;;
3573;SDS011;1801;51.050;6.246;2022-12-07T05:49:41;84.27;;;30.40;;
3573;SDS011;1801;51.050;6.246;2022-12-07T05:52:06;86.80;;;31.13;;
3573;SDS011;1801;51.050;6.246;2022-12-07T05:54:32;70.53;;;30.13;;
3573;SDS011;1801;51.050;6.246;2022-12-07T05:56:57;64.33;;;27.37;;
3573;SDS011;1801;51.050;6.246;2022-12-07T05:59:22;57.63;;;27.90;;
3573;SDS011;1801;51.050;6.246;2022-12-07T06:01:58;61.20;;;26.50;;
3573;SDS011;1801;51.050;6.246;2022-12-07T06:04:24;65.70;;;28.08;;
3573;SDS011;1801;51.050;6.246;2022-12-07T06:06:49;65.05;;;29.20;;
3573;SDS011;1801;51.050;6.246;2022-12-07T06:09:15;64.73;;;29.47;;
3573;SDS011;1801;51.050;6.246;2022-12-07T06:11:40;69.73;;;25.50;;
3573;SDS011;1801;51.050;6.246;2022-12-07T06:14:24;73.25;;;27.42;;
3573;SDS011;1801;51.050;6.246;2022-12-07T06:16:49;69.90;;;29.27;;
3573;SDS011;1801;51.050;6.246;2022-12-07T06:19:15;78.30;;;28.10;;
3573;SDS011;1801;51.050;6.246;2022-12-07T06:21:40;60.50;;;28.10;;
3573;SDS011;1801;51.050;6.246;2022-12-07T06:24:05;72.63;;;29.20;;
3573;SDS011;1801;51.050;6.246;2022-12-07T06:26:31;67.47;;;29.50;;
3573;SDS011;1801;51.050;6.246;2022-12-07T06:28:56;77.10;;;29.27;;
3573;SDS011;1801;51.050;6.246;2022-12-07T06:31:21;61.23;;;25.77;;
3573;SDS011;1801;51.050;6.246;2022-12-07T06:33:46;61.00;;;26.47;;
3573;SDS011;1801;51.050;6.246;2022-12-07T06:36:12;70.97;;;30.07;;
3573;SDS011;1801;51.050;6.246;2022-12-07T06:38:37;70.83;;;28.93;;
3573;SDS011;1801;51.050;6.246;2022-12-07T06:41:02;69.50;;;27.23;;
3573;SDS011;1801;51.050;6.246;2022-12-07T06:43:27;60.30;;;28.10;;
3573;SDS011;1801;51.050;6.246;2022-12-07T06:45:53;63.07;;;28.53;;
3573;SDS011;1801;51.050;6.246;2022-12-07T06:48:18;62.63;;;27.10;;
3573;SDS011;1801;51.050;6.246;2022-12-07T06:50:46;72.07;;;28.07;;
3573;SDS011;1801;51.050;6.246;2022-12-07T06:53:12;74.38;;;28.20;;
3573;SDS011;1801;51.050;6.246;2022-12-07T06:55:37;66.10;;;27.47;;
3573;SDS011;1801;51.050;6.246;2022-12-07T06:58:02;65.87;;;27.20;;
3573;SDS011;1801;51.050;6.246;2022-12-07T07:00:28;71.23;;;26.47;;
3573;SDS011;1801;51.050;6.246;2022-12-07T07:02:53;70.17;;;28.40;;
3573;SDS011;1801;51.050;6.246;2022-12-07T07:05:18;61.33;;;26.67;;
3573;SDS011;1801;51.050;6.246;2022-12-07T07:07:46;61.15;;;26.88;;
3573;SDS011;1801;51.050;6.246;2022-12-07T07:10:11;58.43;;;24.80;;
3573;SDS011;1801;51.050;6.246;2022-12-07T07:12:36;57.10;;;24.47;;
3573;SDS011;1801;51.050;6.246;2022-12-07T07:15:01;44.73;;;22.17;;
3573;SDS011;1801;51.050;6.246;2022-12-07T07:17:27;55.50;;;26.00;;
3573;SDS011;1801;51.050;6.246;2022-12-07T07:19:52;56.50;;;23.37;;
3573;SDS011;1801;51.050;6.246;2022-12-07T07:22:17;55.03;;;23.60;;
3573;SDS011;1801;51.050;6.246;2022-12-07T07:24:42;53.63;;;23.27;;
3573;SDS011;1801;51.050;6.246;2022-12-07T07:27:07;57.13;;;25.40;;
3573;SDS011;1801;51.050;6.246;2022-12-07T07:29:33;68.83;;;26.60;;
3573;SDS011;1801;51.050;6.246;2022-12-07T07:31:58;56.97;;;23.57;;
3573;SDS011;1801;51.050;6.246;2022-12-07T07:34:24;61.55;;;25.05;;
3573;SDS011;1801;51.050;6.246;2022-12-07T07:36:49;58.07;;;24.87;;
3573;SDS011;1801;51.050;6.246;2022-12-07T07:39:14;57.70;;;25.43;;
3573;SDS011;1801;51.050;6.246;2022-12-07T07:41:40;59.87;;;26.07;;
3573;SDS011;1801;51.050;6.246;2022-12-07T07:44:05;73.73;;;27.37;;
3573;SDS011;1801;51.050;6.246;2022-12-07T07:46:30;70.57;;;27.40;;
3573;SDS011;1801;51.050;6.246;2022-12-07T07:48:56;74.03;;;26.80;;
3573;SDS011;1801;51.050;6.246;2022-12-07T07:51:21;66.03;;;25.33;;
3573;SDS011;1801;51.050;6.246;2022-12-07T07:53:46;75.80;;;24.80;;
3573;SDS011;1801;51.050;6.246;2022-12-07T07:56:11;54.03;;;24.53;;
3573;SDS011;1801;51.050;6.246;2022-12-07T07:58:37;54.50;;;25.07;;
3573;SDS011;1801;51.050;6.246;2022-12-07T08:01:04;52.92;;;23.27;;
3573;SDS011;1801;51.050;6.246;2022-12-07T08:03:30;55.30;;;23.23;;
3573;SDS011;1801;51.050;6.246;2022-12-07T08:05:55;59.60;;;25.53;;
3573;SDS011;1801;51.050;6.246;2022-12-07T08:08:20;55.07;;;24.37;;
3573;SDS011;1801;51.050;6.246;2022-12-07T08:10:45;61.70;;;27.57;;
3573;SDS011;1801;51.050;6.246;2022-12-07T08:13:10;70.60;;;29.40;;
3573;SDS011;1801;51.050;6.246;2022-12-07T08:15:37;59.93;;;24.17;;
3573;SDS011;1801;51.050;6.246;2022-12-07T08:18:02;66.13;;;24.38;;
3573;SDS011;1801;51.050;6.246;2022-12-07T08:20:29;66.33;;;26.77;;
3573;SDS011;1801;51.050;6.246;2022-12-07T08:22:54;76.53;;;29.08;;
3573;SDS011;1801;51.050;6.246;2022-12-07T08:25:19;73.37;;;28.90;;
3573;SDS011;1801;51.050;6.246;2022-12-07T08:27:45;76.20;;;28.92;;
3573;SDS011;1801;51.050;6.246;2022-12-07T08:30:11;78.60;;;29.40;;
3573;SDS011;1801;51.050;6.246;2022-12-07T08:32:36;80.10;;;28.00;;
3573;SDS011;1801;51.050;6.246;2022-12-07T08:35:01;64.67;;;26.90;;
3573;SDS011;1801;51.050;6.246;2022-12-07T08:37:26;87.03;;;28.23;;
3573;SDS011;1801;51.050;6.246;2022-12-07T08:39:51;73.20;;;28.70;;
3573;SDS011;1801;51.050;6.246;2022-12-07T08:42:17;72.80;;;26.27;;
3573;SDS011;1801;51.050;6.246;2022-12-07T08:44:42;78.07;;;28.80;;
3573;SDS011;1801;51.050;6.246;2022-12-07T08:47:07;87.40;;;29.30;;
3573;SDS011;1801;51.050;6.246;2022-12-07T08:49:35;83.60;;;28.40;;
3573;SDS011;1801;51.050;6.246;2022-12-07T08:52:01;80.43;;;30.15;;
3573;SDS011;1801;51.050;6.246;2022-12-07T08:54:26;64.33;;;25.93;;
3573;SDS011;1801;51.050;6.246;2022-12-07T08:56:53;67.28;;;26.15;;
3573;SDS011;1801;51.050;6.246;2022-12-07T08:59:18;62.20;;;27.00;;
3573;SDS011;1801;51.050;6.246;2022-12-07T09:01:44;57.67;;;23.70;;
3573;SDS011;1801;51.050;6.246;2022-12-07T09:04:09;63.90;;;24.17;;
3573;SDS011;1801;51.050;6.246;2022-12-07T09:06:34;67.90;;;25.60;;
3573;SDS011;1801;51.050;6.246;2022-12-07T09:09:00;60.83;;;24.43;;
3573;SDS011;1801;51.050;6.246;2022-12-07T09:11:26;54.10;;;23.92;;
3573;SDS011;1801;51.050;6.246;2022-12-07T09:13:51;56.83;;;22.57;;
3573;SDS011;1801;51.050;6.246;2022-12-07T09:16:16;50.07;;;21.83;;
3573;SDS011;1801;51.050;6.246;2022-12-07T09:18:41;57.20;;;20.30;;
3573;SDS011;1801;51.050;6.246;2022-12-07T09:21:06;45.93;;;20.07;;
3573;SDS011;1801;51.050;6.246;2022-12-07T09:23:31;52.57;;;21.10;;
3573;SDS011;1801;51.050;6.246;2022-12-07T09:26:00;49.40;;;21.60;;
3573;SDS011;1801;51.050;6.246;2022-12-07T09:28:25;51.13;;;22.60;;
3573;SDS011;1801;51.050;6.246;2022-12-07T09:30:50;52.43;;;21.80;;
3573;SDS011;1801;51.050;6.246;2022-12-07T09:33:16;50.20;;;20.13;;
3573;SDS011;1801;51.050;6.246;2022-12-07T09:35:45;51.60;;;20.63;;
3573;SDS011;1801;51.050;6.246;2022-12-07T09:38:10;53.10;;;20.75;;
3573;SDS011;1801;51.050;6.246;2022-12-07T09:40:35;73.73;;;19.80;;
3573;SDS011;1801;51.050;6.246;2022-12-07T09:43:00;49.47;;;21.80;;
3573;SDS011;1801;51.050;6.246;2022-12-07T09:45:27;57.27;;;20.73;;
3573;SDS011;1801;51.050;6.246;2022-12-07T09:47:55;50.95;;;21.17;;
3573;SDS011;1801;51.050;6.246;2022-12-07T09:50:24;57.77;;;24.47;;
3573;SDS011;1801;51.050;6.246;2022-12-07T09:52:50;59.33;;;21.95;;
3573;SDS011;1801;51.050;6.246;2022-12-07T09:55:19;63.78;;;23.75;;
3573;SDS011;1801;51.050;6.246;2022-12-07T09:57:47;62.65;;;24.52;;
3573;SDS011;1801;51.050;6.246;2022-12-07T10:00:14;67.87;;;25.23;;
3573;SDS011;1801;51.050;6.246;2022-12-07T10:02:41;62.80;;;24.35;;
3573;SDS011;1801;51.050;6.246;2022-12-07T10:05:07;56.78;;;21.92;;
3573;SDS011;1801;51.050;6.246;2022-12-07T10:07:35;76.30;;;26.33;;
3573;SDS011;1801;51.050;6.246;2022-12-07T10:10:02;70.20;;;25.70;;
3573;SDS011;1801;51.050;6.246;2022-12-07T10:12:27;75.15;;;27.02;;
3573;SDS011;1801;51.050;6.246;2022-12-07T10:15:02;76.17;;;26.37;;
3573;SDS011;1801;51.050;6.246;2022-12-07T10:17:38;86.50;;;27.08;;
3573;SDS011;1801;51.050;6.246;2022-12-07T10:22:33;77.45;;;24.58;;
3573;SDS011;1801;51.050;6.246;2022-12-07T10:25:07;70.77;;;24.47;;
3573;SDS011;1801;51.050;6.246;2022-12-07T10:27:32;91.50;;;26.98;;
3573;SDS011;1801;51.050;6.246;2022-12-07T10:29:57;86.50;;;27.50;;
3573;SDS011;1801;51.050;6.246;2022-12-07T10:32:33;69.67;;;26.20;;
3573;SDS011;1801;51.050;6.246;2022-12-07T10:35:18;73.30;;;26.42;;
3573;SDS011;1801;51.050;6.246;2022-12-07T10:37:44;83.45;;;27.85;;
3573;SDS011;1801;51.050;6.246;2022-12-07T10:40:27;89.88;;;28.80;;
3573;SDS011;1801;51.050;6.246;2022-12-07T10:45:26;74.50;;;26.45;;
3573;SDS011;1801;51.050;6.246;2022-12-07T11:03:51;72.53;;;27.23;;
3573;SDS011;1801;51.050;6.246;2022-12-07T11:09:21;55.40;;;21.38;;
3573;SDS011;1801;51.050;6.246;2022-12-07T11:11:54;56.05;;;22.58;;
3573;SDS011;1801;51.050;6.246;2022-12-07T11:14:37;41.40;;;17.67;;
3573;SDS011;1801;51.050;6.246;2022-12-07T11:17:08;38.85;;;17.52;;
3573;SDS011;1801;51.050;6.246;2022-12-07T11:27:48;41.20;;;16.30;;
3573;SDS011;1801;51.050;6.246;2022-12-07T11:30:22;46.35;;;15.48;;
3573;SDS011;1801;51.050;6.246;2022-12-07T11:33:04;53.60;;;18.90;;
3573;SDS011;1801;51.050;6.246;2022-12-07T11:35:45;43.08;;;17.08;;
3573;SDS011;1801;51.050;6.246;2022-12-07T11:38:17;38.08;;;16.50;;
3573;SDS011;1801;51.050;6.246;2022-12-07T11:40:44;28.88;;;15.75;;
3573;SDS011;1801;51.050;6.246;2022-12-07T11:45:46;31.48;;;13.77;;
3573;SDS011;1801;51.050;6.246;2022-12-07T11:48:14;38.10;;;14.45;;
3573;SDS011;1801;51.050;6.246;2022-12-07T11:50:41;42.08;;;13.85;;
3573;SDS011;1801;51.050;6.246;2022-12-07T12:03:48;33.85;;;16.70;;
3573;SDS011;1801;51.050;6.246;2022-12-07T12:06:14;42.05;;;15.30;;
3573;SDS011;1801;51.050;6.246;2022-12-07T12:08:41;30.77;;;13.47;;
3573;SDS011;1801;51.050;6.246;2022-12-07T12:11:31;39.47;;;13.65;;
3573;SDS011;1801;51.050;6.246;2022-12-07T12:14:24;26.58;;;10.98;;
3573;SDS011;1801;51.050;6.246;2022-12-07T12:17:01;36.67;;;14.02;;
3573;SDS011;1801;51.050;6.246;2022-12-07T12:22:34;28.67;;;12.40;;
3573;SDS011;1801;51.050;6.246;2022-12-07T12:25:02;34.33;;;13.00;;
3573;SDS011;1801;51.050;6.246;2022-12-07T12:27:30;30.70;;;13.23;;
3573;SDS011;1801;51.050;6.246;2022-12-07T12:30:00;23.85;;;11.63;;
3573;SDS011;1801;51.050;6.246;2022-12-07T12:34:59;22.88;;;10.10;;
3573;SDS011;1801;51.050;6.246;2022-12-07T12:42:45;21.52;;;8.15;;
3573;SDS011;1801;51.050;6.246;2022-12-07T12:55:17;15.43;;;6.97;;
3573;SDS011;1801;51.050;6.246;2022-12-07T12:57:46;15.70;;;6.33;;
3573;SDS011;1801;51.050;6.246;2022-12-07T13:00:21;16.60;;;7.00;;
3573;SDS011;1801;51.050;6.246;2022-12-07T13:02:54;19.80;;;7.93;;
3573;SDS011;1801;51.050;6.246;2022-12-07T13:05:23;15.43;;;7.97;;
3573;SDS011;1801;51.050;6.246;2022-12-07T13:07:51;27.50;;;8.17;;
3573;SDS011;1801;51.050;6.246;2022-12-07T13:12:56;21.38;;;8.48;;
3573;SDS011;1801;51.050;6.246;2022-12-07T13:15:38;16.73;;;8.15;;
3573;SDS011;1801;51.050;6.246;2022-12-07T13:18:25;18.95;;;9.35;;
3573;SDS011;1801;51.050;6.246;2022-12-07T13:23:16;25.57;;;9.33;;
3573;SDS011;1801;51.050;6.246;2022-12-07T13:25:54;25.92;;;10.68;;
3573;SDS011;1801;51.050;6.246;2022-12-07T13:28:21;22.80;;;8.63;;
3573;SDS011;1801;51.050;6.246;2022-12-07T13:30:50;26.13;;;11.18;;
3573;SDS011;1801;51.050;6.246;2022-12-07T13:33:18;25.38;;;11.13;;
3573;SDS011;1801;51.050;6.246;2022-12-07T13:35:44;24.23;;;10.00;;
3573;SDS011;1801;51.050;6.246;2022-12-07T13:38:28;24.10;;;9.70;;
3573;SDS011;1801;51.050;6.246;2022-12-07T13:41:05;25.45;;;10.70;;
3573;SDS011;1801;51.050;6.246;2022-12-07T13:46:13;21.17;;;9.40;;
3573;SDS011;1801;51.050;6.246;2022-12-07T13:48:49;29.52;;;11.43;;
3573;SDS011;1801;51.050;6.246;2022-12-07T13:51:21;19.70;;;9.50;;
3573;SDS011;1801;51.050;6.246;2022-12-07T13:53:48;25.50;;;9.48;;
3573;SDS011;1801;51.050;6.246;2022-12-07T13:56:13;18.40;;;10.07;;
3573;SDS011;1801;51.050;6.246;2022-12-07T13:58:39;23.63;;;10.97;;
3573;SDS011;1801;51.050;6.246;2022-12-07T14:01:04;22.40;;;10.90;;
3573;SDS011;1801;51.050;6.246;2022-12-07T14:03:33;22.65;;;10.40;;
3573;SDS011;1801;51.050;6.246;2022-12-07T14:08:30;22.75;;;9.63;;
3573;SDS011;1801;51.050;6.246;2022-12-07T14:10:56;22.07;;;11.03;;
3573;SDS011;1801;51.050;6.246;2022-12-07T14:13:32;25.38;;;9.20;;
3573;SDS011;1801;51.050;6.246;2022-12-07T14:16:03;32.58;;;10.75;;
3573;SDS011;1801;51.050;6.246;2022-12-07T14:18:36;20.75;;;10.27;;
3573;SDS011;1801;51.050;6.246;2022-12-07T14:21:03;10.23;;;6.60;;
3573;SDS011;1801;51.050;6.246;2022-12-07T14:23:28;12.23;;;6.90;;
3573;SDS011;1801;51.050;6.246;2022-12-07T14:25:53;15.33;;;7.73;;
3573;SDS011;1801;51.050;6.246;2022-12-07T14:30:50;17.00;;;9.10;;
3573;SDS011;1801;51.050;6.246;2022-12-07T14:33:15;14.33;;;6.93;;
3573;SDS011;1801;51.050;6.246;2022-12-07T14:35:40;13.37;;;6.43;;
3573;SDS011;1801;51.050;6.246;2022-12-07T14:38:05;8.37;;;5.83;;
3573;SDS011;1801;51.050;6.246;2022-12-07T14:40:31;10.60;;;6.00;;
3573;SDS011;1801;51.050;6.246;2022-12-07T14:43:00;12.73;;;7.60;;
3573;SDS011;1801;51.050;6.246;2022-12-07T14:45:26;14.80;;;8.18;;
3573;SDS011;1801;51.050;6.246;2022-12-07T14:47:52;18.33;;;8.57;;
3573;SDS011;1801;51.050;6.246;2022-12-07T14:50:18;21.43;;;11.60;;
3573;SDS011;1801;51.050;6.246;2022-12-07T14:52:44;18.30;;;9.77;;
3573;SDS011;1801;51.050;6.246;2022-12-07T14:55:22;19.60;;;9.93;;
3573;SDS011;1801;51.050;6.246;2022-12-07T14:57:48;22.67;;;11.55;;
3573;SDS011;1801;51.050;6.246;2022-12-07T15:00:13;16.33;;;8.63;;
3573;SDS011;1801;51.050;6.246;2022-12-07T15:02:39;22.13;;;10.73;;
3573;SDS011;1801;51.050;6.246;2022-12-07T15:05:04;25.13;;;10.10;;
3573;SDS011;1801;51.050;6.246;2022-12-07T15:07:29;23.00;;;11.80;;
3573;SDS011;1801;51.050;6.246;2022-12-07T15:09:54;22.03;;;9.73;;
3573;SDS011;1801;51.050;6.246;2022-12-07T15:12:20;26.13;;;12.13;;
3573;SDS011;1801;51.050;6.246;2022-12-07T15:14:45;21.90;;;11.43;;
3573;SDS011;1801;51.050;6.246;2022-12-07T15:17:11;20.30;;;10.93;;
3573;SDS011;1801;51.050;6.246;2022-12-07T15:19:37;30.52;;;12.85;;
3573;SDS011;1801;51.050;6.246;2022-12-07T15:22:02;24.77;;;12.63;;
3573;SDS011;1801;51.050;6.246;2022-12-07T15:24:27;26.53;;;13.30;;
3573;SDS011;1801;51.050;6.246;2022-12-07T15:26:52;21.90;;;11.03;;
3573;SDS011;1801;51.050;6.246;2022-12-07T15:29:18;25.23;;;12.53;;
3573;SDS011;1801;51.050;6.246;2022-12-07T15:31:43;33.67;;;11.93;;
3573;SDS011;1801;51.050;6.246;2022-12-07T15:34:09;24.17;;;13.20;;
3573;SDS011;1801;51.050;6.246;2022-12-07T15:36:34;29.63;;;12.33;;
3573;SDS011;1801;51.050;6.246;2022-12-07T15:38:59;23.53;;;12.10;;
3573;SDS011;1801;51.050;6.246;2022-12-07T15:41:25;27.80;;;12.33;;
3573;SDS011;1801;51.050;6.246;2022-12-07T15:43:50;37.07;;;12.20;;
3573;SDS011;1801;51.050;6.246;2022-12-07T15:46:41;32.00;;;13.00;;
3573;SDS011;1801;51.050;6.246;2022-12-07T15:49:14;27.80;;;12.60;;
3573;SDS011;1801;51.050;6.246;2022-12-07T15:51:40;29.60;;;14.25;;
3573;SDS011;1801;51.050;6.246;2022-12-07T15:54:06;27.05;;;13.15;;
3573;SDS011;1801;51.050;6.246;2022-12-07T15:56:31;30.77;;;14.30;;
3573;SDS011;1801;51.050;6.246;2022-12-07T15:58:56;26.33;;;14.33;;
3573;SDS011;1801;51.050;6.246;2022-12-07T16:01:21;26.50;;;14.20;;
3573;SDS011;1801;51.050;6.246;2022-12-07T16:03:47;32.90;;;13.17;;
3573;SDS011;1801;51.050;6.246;2022-12-07T16:06:15;26.20;;;12.67;;
3573;SDS011;1801;51.050;6.246;2022-12-07T16:08:43;25.98;;;13.02;;
3573;SDS011;1801;51.050;6.246;2022-12-07T16:11:09;33.75;;;16.27;;
3573;SDS011;1801;51.050;6.246;2022-12-07T16:13:34;39.90;;;15.70;;
3573;SDS011;1801;51.050;6.246;2022-12-07T16:16:03;31.87;;;15.80;;
3573;SDS011;1801;51.050;6.246;2022-12-07T16:18:28;42.17;;;16.58;;
3573;SDS011;1801;51.050;6.246;2022-12-07T16:20:53;34.83;;;16.10;;
3573;SDS011;1801;51.050;6.246;2022-12-07T16:23:19;31.63;;;14.60;;
3573;SDS011;1801;51.050;6.246;2022-12-07T16:25:44;31.87;;;15.27;;
3573;SDS011;1801;51.050;6.246;2022-12-07T16:28:09;26.33;;;13.67;;
3573;SDS011;1801;51.050;6.246;2022-12-07T16:30:34;32.93;;;15.60;;
3573;SDS011;1801;51.050;6.246;2022-12-07T16:33:00;29.67;;;15.83;;
3573;SDS011;1801;51.050;6.246;2022-12-07T16:35:25;38.67;;;16.50;;